sensor_id;sensor_type;location;lat;lon;timestamp;temperature;humidity
10660;DHT22;5378;53.206;13.316;2024-01-10T00:01:06;-6.30;99.90
10660;DHT22;5378;53.206;13.316;2024-01-10T00:03:53;-6.30;99.90
10660;DHT22;5378;53.206;13.316;2024-01-10T00:06:41;-6.40;99.90
10660;DHT22;5378;53.206;13.316;2024-01-10T00:09:29;-6.40;99.90
10660;DHT22;5378;53.206;13.316;2024-01-10T00:12:16;-6.30;99.90
10660;DHT22;5378;53.206;13.316;2024-01-10T00:15:04;-6.40;99.90
10660;DHT22;5378;53.206;13.316;2024-01-10T00:17:51;-6.40;99.90
10660;DHT22;5378;53.206;13.316;2024-01-10T00:20:39;-6.30;99.90
10660;DHT22;5378;53.206;13.316;2024-01-10T00:23:27;-6.40;99.90
10660;DHT22;5378;53.206;13.316;2024-01-10T00:26:14;-6.60;99.90
10660;DHT22;5378;53.206;13.316;2024-01-10T00:29:01;-6.80;99.90
10660;DHT22;5378;53.206;13.316;2024-01-10T00:31:48;-7.10;99.90
10660;DHT22;5378;53.206;13.316;2024-01-10T00:34:35;-7.30;99.90
10660;DHT22;5378;53.206;13.316;2024-01-10T00:37:22;-7.30;99.90
10660;DHT22;5378;53.206;13.316;2024-01-10T00:40:11;-7.30;99.90
10660;DHT22;5378;53.206;13.316;2024-01-10T00:42:58;-7.20;99.90
10660;DHT22;5378;53.206;13.316;2024-01-10T00:45:44;-7.10;99.90
10660;DHT22;5378;53.206;13.316;2024-01-10T00:48:31;-7.20;99.90
10660;DHT22;5378;53.206;13.316;2024-01-10T00:51:19;-7.20;99.90
10660;DHT22;5378;53.206;13.316;2024-01-10T00:54:06;-7.40;99.90
10660;DHT22;5378;53.206;13.316;2024-01-10T00:56:55;-7.40;99.90
10660;DHT22;5378;53.206;13.316;2024-01-10T00:59:42;-7.40;99.90
10660;DHT22;5378;53.206;13.316;2024-01-10T01:02:28;-7.30;99.90
10660;DHT22;5378;53.206;13.316;2024-01-10T01:05:15;-7.20;99.90
10660;DHT22;5378;53.206;13.316;2024-01-10T01:08:03;-7.20;99.90
10660;DHT22;5378;53.206;13.316;2024-01-10T01:10:50;-7.20;99.90
10660;DHT22;5378;53.206;13.316;2024-01-10T01:13:38;-7.10;99.90
10660;DHT22;5378;53.206;13.316;2024-01-10T01:16:25;-7.00;99.90
10660;DHT22;5378;53.206;13.316;2024-01-10T01:19:13;-7.00;99.90
10660;DHT22;5378;53.206;13.316;2024-01-10T01:22:00;-7.10;99.90
10660;DHT22;5378;53.206;13.316;2024-01-10T01:24:47;-7.00;99.90
10660;DHT22;5378;53.206;13.316;2024-01-10T01:27:34;-6.90;99.90
10660;DHT22;5378;53.206;13.316;2024-01-10T01:30:22;-6.90;99.90
10660;DHT22;5378;53.206;13.316;2024-01-10T01:33:10;-7.00;99.90
10660;DHT22;5378;53.206;13.316;2024-01-10T01:35:57;-6.90;99.90
10660;DHT22;5378;53.206;13.316;2024-01-10T01:38:45;-6.80;99.90
10660;DHT22;5378;53.206;13.316;2024-01-10T01:41:32;-6.70;99.90
10660;DHT22;5378;53.206;13.316;2024-01-10T01:44:19;-6.80;99.90
10660;DHT22;5378;53.206;13.316;2024-01-10T01:47:07;-6.90;99.90
10660;DHT22;5378;53.206;13.316;2024-01-10T01:49:54;-6.90;99.90
10660;DHT22;5378;53.206;13.316;2024-01-10T01:52:41;-6.90;99.90
10660;DHT22;5378;53.206;13.316;2024-01-10T01:55:29;-6.90;99.90
10660;DHT22;5378;53.206;13.316;2024-01-10T01:58:16;-7.00;99.90
10660;DHT22;5378;53.206;13.316;2024-01-10T02:01:04;-7.00;99.90
10660;DHT22;5378;53.206;13.316;2024-01-10T02:03:53;-7.10;99.90
10660;DHT22;5378;53.206;13.316;2024-01-10T02:06:42;-7.10;99.90
10660;DHT22;5378;53.206;13.316;2024-01-10T02:09:29;-7.10;99.90
10660;DHT22;5378;53.206;13.316;2024-01-10T02:12:16;-7.20;99.90
10660;DHT22;5378;53.206;13.316;2024-01-10T02:15:03;-7.10;99.90
10660;DHT22;5378;53.206;13.316;2024-01-10T02:17:50;-7.20;99.90
10660;DHT22;5378;53.206;13.316;2024-01-10T02:20:39;-7.30;99.90
10660;DHT22;5378;53.206;13.316;2024-01-10T02:23:26;-7.30;99.90
10660;DHT22;5378;53.206;13.316;2024-01-10T02:26:14;-7.20;99.90
10660;DHT22;5378;53.206;13.316;2024-01-10T02:29:01;-7.30;99.90
10660;DHT22;5378;53.206;13.316;2024-01-10T02:31:48;-7.40;99.90
10660;DHT22;5378;53.206;13.316;2024-01-10T02:34:36;-7.30;99.90
10660;DHT22;5378;53.206;13.316;2024-01-10T02:37:23;-7.30;99.90
10660;DHT22;5378;53.206;13.316;2024-01-10T02:40:11;-7.20;99.90
10660;DHT22;5378;53.206;13.316;2024-01-10T02:42:59;-7.20;99.90
10660;DHT22;5378;53.206;13.316;2024-01-10T02:45:46;-7.10;99.90
10660;DHT22;5378;53.206;13.316;2024-01-10T02:48:33;-7.10;99.90
10660;DHT22;5378;53.206;13.316;2024-01-10T02:51:21;-7.00;99.90
10660;DHT22;5378;53.206;13.316;2024-01-10T02:54:08;-7.20;99.90
10660;DHT22;5378;53.206;13.316;2024-01-10T02:56:55;-7.20;99.90
10660;DHT22;5378;53.206;13.316;2024-01-10T02:59:43;-7.30;99.90
10660;DHT22;5378;53.206;13.316;2024-01-10T03:02:30;-7.30;99.90
10660;DHT22;5378;53.206;13.316;2024-01-10T03:05:17;-7.30;99.90
10660;DHT22;5378;53.206;13.316;2024-01-10T03:08:23;-7.40;99.90
10660;DHT22;5378;53.206;13.316;2024-01-10T03:11:11;-7.60;99.90
10660;DHT22;5378;53.206;13.316;2024-01-10T03:14:01;-7.70;99.90
10660;DHT22;5378;53.206;13.316;2024-01-10T03:16:51;-7.70;99.90
10660;DHT22;5378;53.206;13.316;2024-01-10T03:19:39;-7.60;99.90
10660;DHT22;5378;53.206;13.316;2024-01-10T03:22:31;-7.50;99.90
10660;DHT22;5378;53.206;13.316;2024-01-10T03:25:18;-7.50;99.90
10660;DHT22;5378;53.206;13.316;2024-01-10T03:28:05;-7.30;99.90
10660;DHT22;5378;53.206;13.316;2024-01-10T03:30:52;-7.30;99.90
10660;DHT22;5378;53.206;13.316;2024-01-10T03:33:40;-7.30;99.90
10660;DHT22;5378;53.206;13.316;2024-01-10T03:36:28;-7.40;99.90
10660;DHT22;5378;53.206;13.316;2024-01-10T03:39:15;-7.40;99.90
10660;DHT22;5378;53.206;13.316;2024-01-10T03:42:02;-7.40;99.90
10660;DHT22;5378;53.206;13.316;2024-01-10T03:44:49;-7.50;99.90
10660;DHT22;5378;53.206;13.316;2024-01-10T03:47:35;-7.50;99.90
10660;DHT22;5378;53.206;13.316;2024-01-10T03:50:24;-7.40;99.90
10660;DHT22;5378;53.206;13.316;2024-01-10T03:53:11;-7.40;99.90
10660;DHT22;5378;53.206;13.316;2024-01-10T03:55:58;-7.40;99.90
10660;DHT22;5378;53.206;13.316;2024-01-10T03:58:45;-7.40;99.90
10660;DHT22;5378;53.206;13.316;2024-01-10T04:01:34;-7.30;99.90
10660;DHT22;5378;53.206;13.316;2024-01-10T04:04:25;-7.40;99.90
10660;DHT22;5378;53.206;13.316;2024-01-10T04:07:13;-7.40;99.90
10660;DHT22;5378;53.206;13.316;2024-01-10T04:10:00;-7.40;99.90
10660;DHT22;5378;53.206;13.316;2024-01-10T04:12:48;-7.40;99.90
10660;DHT22;5378;53.206;13.316;2024-01-10T04:15:35;-7.50;99.90
10660;DHT22;5378;53.206;13.316;2024-01-10T04:18:22;-7.40;99.90
10660;DHT22;5378;53.206;13.316;2024-01-10T04:21:09;-7.40;99.90
10660;DHT22;5378;53.206;13.316;2024-01-10T04:23:57;-7.40;99.90
10660;DHT22;5378;53.206;13.316;2024-01-10T04:26:44;-7.40;99.90
10660;DHT22;5378;53.206;13.316;2024-01-10T04:29:31;-7.40;99.90
10660;DHT22;5378;53.206;13.316;2024-01-10T04:32:18;-7.40;99.90
10660;DHT22;5378;53.206;13.316;2024-01-10T04:35:05;-7.40;99.90
10660;DHT22;5378;53.206;13.316;2024-01-10T04:37:53;-7.40;99.90
10660;DHT22;5378;53.206;13.316;2024-01-10T04:40:41;-7.30;99.90
10660;DHT22;5378;53.206;13.316;2024-01-10T04:43:29;-7.20;99.90
10660;DHT22;5378;53.206;13.316;2024-01-10T04:46:16;-7.30;99.90
10660;DHT22;5378;53.206;13.316;2024-01-10T04:49:03;-7.20;99.90
10660;DHT22;5378;53.206;13.316;2024-01-10T04:51:50;-7.20;99.90
10660;DHT22;5378;53.206;13.316;2024-01-10T04:54:38;-7.30;99.90
10660;DHT22;5378;53.206;13.316;2024-01-10T04:57:26;-7.30;99.90
10660;DHT22;5378;53.206;13.316;2024-01-10T05:00:13;-7.20;99.90
10660;DHT22;5378;53.206;13.316;2024-01-10T05:03:00;-7.10;99.90
10660;DHT22;5378;53.206;13.316;2024-01-10T05:05:47;-7.10;99.90
10660;DHT22;5378;53.206;13.316;2024-01-10T05:08:34;-7.10;99.90
10660;DHT22;5378;53.206;13.316;2024-01-10T05:11:21;-7.00;99.90
10660;DHT22;5378;53.206;13.316;2024-01-10T05:14:10;-7.00;99.90
10660;DHT22;5378;53.206;13.316;2024-01-10T05:16:57;-6.90;99.90
10660;DHT22;5378;53.206;13.316;2024-01-10T05:19:44;-6.90;99.90
10660;DHT22;5378;53.206;13.316;2024-01-10T05:22:32;-6.90;99.90
10660;DHT22;5378;53.206;13.316;2024-01-10T05:25:19;-6.90;99.90
10660;DHT22;5378;53.206;13.316;2024-01-10T05:28:06;-7.00;99.90
10660;DHT22;5378;53.206;13.316;2024-01-10T05:30:54;-7.10;99.90
10660;DHT22;5378;53.206;13.316;2024-01-10T05:33:41;-7.10;99.90
10660;DHT22;5378;53.206;13.316;2024-01-10T05:36:28;-7.00;99.90
10660;DHT22;5378;53.206;13.316;2024-01-10T05:39:15;-7.10;99.90
10660;DHT22;5378;53.206;13.316;2024-01-10T05:42:03;-7.10;99.90
10660;DHT22;5378;53.206;13.316;2024-01-10T05:44:51;-7.20;99.90
10660;DHT22;5378;53.206;13.316;2024-01-10T05:47:40;-7.20;99.90
10660;DHT22;5378;53.206;13.316;2024-01-10T05:50:27;-7.20;99.90
10660;DHT22;5378;53.206;13.316;2024-01-10T05:53:14;-7.20;99.90
10660;DHT22;5378;53.206;13.316;2024-01-10T05:56:05;-7.30;99.90
10660;DHT22;5378;53.206;13.316;2024-01-10T05:58:52;-7.40;99.90
10660;DHT22;5378;53.206;13.316;2024-01-10T06:01:39;-7.40;99.90
10660;DHT22;5378;53.206;13.316;2024-01-10T06:04:27;-7.40;99.90
10660;DHT22;5378;53.206;13.316;2024-01-10T06:07:16;-7.30;99.90
10660;DHT22;5378;53.206;13.316;2024-01-10T06:10:04;-7.30;99.90
10660;DHT22;5378;53.206;13.316;2024-01-10T06:12:51;-7.20;99.90
10660;DHT22;5378;53.206;13.316;2024-01-10T06:15:38;-7.30;99.90
10660;DHT22;5378;53.206;13.316;2024-01-10T06:18:25;-7.30;99.90
10660;DHT22;5378;53.206;13.316;2024-01-10T06:21:14;-7.30;99.90
10660;DHT22;5378;53.206;13.316;2024-01-10T06:24:01;-7.40;99.90
10660;DHT22;5378;53.206;13.316;2024-01-10T06:26:48;-7.40;99.90
10660;DHT22;5378;53.206;13.316;2024-01-10T06:29:36;-7.50;99.90
10660;DHT22;5378;53.206;13.316;2024-01-10T06:32:23;-7.60;99.90
10660;DHT22;5378;53.206;13.316;2024-01-10T06:35:11;-7.60;99.90
10660;DHT22;5378;53.206;13.316;2024-01-10T06:37:59;-7.60;99.90
10660;DHT22;5378;53.206;13.316;2024-01-10T06:40:50;-7.60;99.90
10660;DHT22;5378;53.206;13.316;2024-01-10T06:43:37;-7.50;99.90
10660;DHT22;5378;53.206;13.316;2024-01-10T06:46:24;-7.70;99.90
10660;DHT22;5378;53.206;13.316;2024-01-10T06:49:11;-7.70;99.90
10660;DHT22;5378;53.206;13.316;2024-01-10T06:51:58;-7.80;99.90
10660;DHT22;5378;53.206;13.316;2024-01-10T06:54:48;-7.80;99.90
10660;DHT22;5378;53.206;13.316;2024-01-10T06:57:35;-7.70;99.90
10660;DHT22;5378;53.206;13.316;2024-01-10T07:00:22;-7.70;99.90
10660;DHT22;5378;53.206;13.316;2024-01-10T07:03:10;-7.70;99.90
10660;DHT22;5378;53.206;13.316;2024-01-10T07:05:57;-7.60;99.90
10660;DHT22;5378;53.206;13.316;2024-01-10T07:08:44;-7.60;99.90
10660;DHT22;5378;53.206;13.316;2024-01-10T07:11:32;-7.80;99.90
10660;DHT22;5378;53.206;13.316;2024-01-10T07:14:19;-7.90;99.90
10660;DHT22;5378;53.206;13.316;2024-01-10T07:17:06;-7.90;99.90
10660;DHT22;5378;53.206;13.316;2024-01-10T07:19:53;-7.80;99.90
10660;DHT22;5378;53.206;13.316;2024-01-10T07:22:42;-7.80;99.90
10660;DHT22;5378;53.206;13.316;2024-01-10T07:25:29;-7.70;99.90
10660;DHT22;5378;53.206;13.316;2024-01-10T07:28:18;-7.60;99.90
10660;DHT22;5378;53.206;13.316;2024-01-10T07:31:05;-7.60;99.90
10660;DHT22;5378;53.206;13.316;2024-01-10T07:33:52;-7.40;99.90
10660;DHT22;5378;53.206;13.316;2024-01-10T07:36:44;-7.50;99.90
10660;DHT22;5378;53.206;13.316;2024-01-10T07:39:31;-7.40;99.90
10660;DHT22;5378;53.206;13.316;2024-01-10T07:42:18;-7.50;99.90
10660;DHT22;5378;53.206;13.316;2024-01-10T07:45:07;-7.50;99.90
10660;DHT22;5378;53.206;13.316;2024-01-10T07:47:54;-7.40;99.90
10660;DHT22;5378;53.206;13.316;2024-01-10T07:50:41;-7.40;99.90
10660;DHT22;5378;53.206;13.316;2024-01-10T07:53:28;-7.40;99.90
10660;DHT22;5378;53.206;13.316;2024-01-10T07:56:15;-7.40;99.90
10660;DHT22;5378;53.206;13.316;2024-01-10T07:59:02;-7.50;99.90
10660;DHT22;5378;53.206;13.316;2024-01-10T08:01:56;-7.40;99.90
10660;DHT22;5378;53.206;13.316;2024-01-10T08:04:44;-7.30;99.90
10660;DHT22;5378;53.206;13.316;2024-01-10T08:07:31;-7.10;99.90
10660;DHT22;5378;53.206;13.316;2024-01-10T08:10:19;-7.10;99.90
10660;DHT22;5378;53.206;13.316;2024-01-10T08:13:07;-7.20;99.90
10660;DHT22;5378;53.206;13.316;2024-01-10T08:15:54;-7.30;99.90
10660;DHT22;5378;53.206;13.316;2024-01-10T08:18:42;-7.30;99.90
10660;DHT22;5378;53.206;13.316;2024-01-10T08:21:31;-7.20;99.90
10660;DHT22;5378;53.206;13.316;2024-01-10T08:24:18;-7.20;99.90
10660;DHT22;5378;53.206;13.316;2024-01-10T08:27:05;-7.10;99.90
10660;DHT22;5378;53.206;13.316;2024-01-10T08:29:52;-7.00;99.90
10660;DHT22;5378;53.206;13.316;2024-01-10T08:32:39;-6.90;99.90
10660;DHT22;5378;53.206;13.316;2024-01-10T08:35:27;-6.80;99.90
10660;DHT22;5378;53.206;13.316;2024-01-10T08:38:14;-6.80;99.90
10660;DHT22;5378;53.206;13.316;2024-01-10T08:41:02;-6.70;99.90
10660;DHT22;5378;53.206;13.316;2024-01-10T08:43:49;-6.60;99.90
10660;DHT22;5378;53.206;13.316;2024-01-10T08:46:37;-6.60;99.90
10660;DHT22;5378;53.206;13.316;2024-01-10T08:49:24;-6.50;99.90
10660;DHT22;5378;53.206;13.316;2024-01-10T08:52:13;-6.50;99.90
10660;DHT22;5378;53.206;13.316;2024-01-10T08:55:00;-6.50;99.90
10660;DHT22;5378;53.206;13.316;2024-01-10T08:57:47;-6.50;99.90
10660;DHT22;5378;53.206;13.316;2024-01-10T09:00:34;-6.40;99.90
10660;DHT22;5378;53.206;13.316;2024-01-10T09:03:22;-6.40;99.90
10660;DHT22;5378;53.206;13.316;2024-01-10T09:06:09;-6.30;99.90
10660;DHT22;5378;53.206;13.316;2024-01-10T09:08:57;-6.20;99.90
10660;DHT22;5378;53.206;13.316;2024-01-10T09:11:45;-6.10;99.90
10660;DHT22;5378;53.206;13.316;2024-01-10T09:14:32;-6.10;99.90
10660;DHT22;5378;53.206;13.316;2024-01-10T09:17:19;-6.00;99.90
10660;DHT22;5378;53.206;13.316;2024-01-10T09:20:07;-6.00;99.90
10660;DHT22;5378;53.206;13.316;2024-01-10T09:22:54;-6.00;99.90
10660;DHT22;5378;53.206;13.316;2024-01-10T09:25:42;-6.00;99.90
10660;DHT22;5378;53.206;13.316;2024-01-10T09:28:29;-6.10;99.90
10660;DHT22;5378;53.206;13.316;2024-01-10T09:31:17;-6.00;99.90
10660;DHT22;5378;53.206;13.316;2024-01-10T09:34:04;-5.90;99.90
10660;DHT22;5378;53.206;13.316;2024-01-10T09:36:51;-5.80;99.90
10660;DHT22;5378;53.206;13.316;2024-01-10T09:39:38;-5.80;99.90
10660;DHT22;5378;53.206;13.316;2024-01-10T09:42:26;-5.80;99.90
10660;DHT22;5378;53.206;13.316;2024-01-10T09:45:18;-5.80;99.90
10660;DHT22;5378;53.206;13.316;2024-01-10T09:48:06;-5.80;99.90
10660;DHT22;5378;53.206;13.316;2024-01-10T09:50:53;-5.70;99.90
10660;DHT22;5378;53.206;13.316;2024-01-10T09:53:44;-5.70;99.90
10660;DHT22;5378;53.206;13.316;2024-01-10T09:56:35;-5.80;99.90
10660;DHT22;5378;53.206;13.316;2024-01-10T09:59:24;-5.60;99.90
10660;DHT22;5378;53.206;13.316;2024-01-10T10:02:11;-5.50;99.90
10660;DHT22;5378;53.206;13.316;2024-01-10T10:05:03;-5.50;99.90
10660;DHT22;5378;53.206;13.316;2024-01-10T10:07:51;-5.40;99.90
10660;DHT22;5378;53.206;13.316;2024-01-10T10:10:39;-5.30;99.90
10660;DHT22;5378;53.206;13.316;2024-01-10T10:13:30;-5.40;99.90
10660;DHT22;5378;53.206;13.316;2024-01-10T10:16:24;-5.30;99.90
10660;DHT22;5378;53.206;13.316;2024-01-10T10:19:11;-5.20;99.90
10660;DHT22;5378;53.206;13.316;2024-01-10T10:22:07;-5.30;99.90
10660;DHT22;5378;53.206;13.316;2024-01-10T10:24:55;-5.20;99.90
10660;DHT22;5378;53.206;13.316;2024-01-10T10:27:42;-5.00;99.90
10660;DHT22;5378;53.206;13.316;2024-01-10T10:30:31;-5.10;99.90
10660;DHT22;5378;53.206;13.316;2024-01-10T10:33:20;-5.00;99.90
10660;DHT22;5378;53.206;13.316;2024-01-10T10:36:08;-4.90;99.90
10660;DHT22;5378;53.206;13.316;2024-01-10T10:38:55;-4.90;99.90
10660;DHT22;5378;53.206;13.316;2024-01-10T10:41:42;-4.90;99.90
10660;DHT22;5378;53.206;13.316;2024-01-10T10:44:33;-4.80;99.90
10660;DHT22;5378;53.206;13.316;2024-01-10T10:47:23;-4.70;99.90
10660;DHT22;5378;53.206;13.316;2024-01-10T10:50:20;-4.60;99.90
10660;DHT22;5378;53.206;13.316;2024-01-10T10:53:08;-4.60;99.90
10660;DHT22;5378;53.206;13.316;2024-01-10T10:55:57;-4.70;99.90
10660;DHT22;5378;53.206;13.316;2024-01-10T10:58:46;-4.80;99.90
10660;DHT22;5378;53.206;13.316;2024-01-10T11:01:34;-4.70;99.90
10660;DHT22;5378;53.206;13.316;2024-01-10T11:04:22;-4.70;99.90
10660;DHT22;5378;53.206;13.316;2024-01-10T11:07:11;-4.60;99.90
10660;DHT22;5378;53.206;13.316;2024-01-10T11:09:59;-4.50;99.90
10660;DHT22;5378;53.206;13.316;2024-01-10T11:13:00;-4.50;99.90
10660;DHT22;5378;53.206;13.316;2024-01-10T11:16:11;-4.50;99.90
10660;DHT22;5378;53.206;13.316;2024-01-10T11:19:17;-4.40;99.90
10660;DHT22;5378;53.206;13.316;2024-01-10T11:22:19;-4.30;99.90
10660;DHT22;5378;53.206;13.316;2024-01-10T11:25:10;-4.00;99.90
10660;DHT22;5378;53.206;13.316;2024-01-10T11:27:57;-4.00;99.90
10660;DHT22;5378;53.206;13.316;2024-01-10T11:30:50;-3.90;99.90
10660;DHT22;5378;53.206;13.316;2024-01-10T11:33:39;-3.90;99.90
10660;DHT22;5378;53.206;13.316;2024-01-10T11:36:29;-4.00;99.90
10660;DHT22;5378;53.206;13.316;2024-01-10T11:39:19;-4.10;99.90
10660;DHT22;5378;53.206;13.316;2024-01-10T11:42:07;-4.00;99.90
10660;DHT22;5378;53.206;13.316;2024-01-10T11:44:55;-3.90;99.90
10660;DHT22;5378;53.206;13.316;2024-01-10T11:47:43;-3.80;99.90
10660;DHT22;5378;53.206;13.316;2024-01-10T11:50:30;-3.90;99.90
10660;DHT22;5378;53.206;13.316;2024-01-10T11:53:39;-3.90;99.90
10660;DHT22;5378;53.206;13.316;2024-01-10T11:56:38;-3.70;99.90
10660;DHT22;5378;53.206;13.316;2024-01-10T11:59:27;-3.70;99.90
10660;DHT22;5378;53.206;13.316;2024-01-10T12:02:16;-3.70;99.90
10660;DHT22;5378;53.206;13.316;2024-01-10T12:05:05;-3.60;99.90
10660;DHT22;5378;53.206;13.316;2024-01-10T12:07:52;-3.50;99.90
10660;DHT22;5378;53.206;13.316;2024-01-10T12:10:39;-3.50;99.90
10660;DHT22;5378;53.206;13.316;2024-01-10T12:13:28;-3.60;99.90
10660;DHT22;5378;53.206;13.316;2024-01-10T12:16:17;-3.60;99.90
10660;DHT22;5378;53.206;13.316;2024-01-10T12:19:04;-3.60;99.90
10660;DHT22;5378;53.206;13.316;2024-01-10T12:21:51;-3.60;99.90
10660;DHT22;5378;53.206;13.316;2024-01-10T12:24:42;-3.50;99.90
10660;DHT22;5378;53.206;13.316;2024-01-10T12:27:31;-3.40;99.90
10660;DHT22;5378;53.206;13.316;2024-01-10T12:30:19;-3.40;99.90
10660;DHT22;5378;53.206;13.316;2024-01-10T12:33:08;-3.50;99.90
10660;DHT22;5378;53.206;13.316;2024-01-10T12:36:03;-3.40;99.90
10660;DHT22;5378;53.206;13.316;2024-01-10T12:38:51;-3.30;99.90
10660;DHT22;5378;53.206;13.316;2024-01-10T12:41:40;-3.20;99.90
10660;DHT22;5378;53.206;13.316;2024-01-10T12:44:28;-3.20;99.90
10660;DHT22;5378;53.206;13.316;2024-01-10T12:47:21;-3.20;99.90
10660;DHT22;5378;53.206;13.316;2024-01-10T12:50:09;-3.10;99.90
10660;DHT22;5378;53.206;13.316;2024-01-10T12:52:56;-3.10;99.90
10660;DHT22;5378;53.206;13.316;2024-01-10T12:55:45;-3.20;99.90
10660;DHT22;5378;53.206;13.316;2024-01-10T12:58:32;-3.20;99.90
10660;DHT22;5378;53.206;13.316;2024-01-10T13:01:21;-3.10;99.90
10660;DHT22;5378;53.206;13.316;2024-01-10T13:04:10;-3.10;99.90
10660;DHT22;5378;53.206;13.316;2024-01-10T13:06:58;-3.20;99.90
10660;DHT22;5378;53.206;13.316;2024-01-10T13:09:46;-3.20;99.90
10660;DHT22;5378;53.206;13.316;2024-01-10T13:12:33;-3.20;99.90
10660;DHT22;5378;53.206;13.316;2024-01-10T13:15:20;-3.10;99.90
10660;DHT22;5378;53.206;13.316;2024-01-10T13:18:07;-3.10;99.90
10660;DHT22;5378;53.206;13.316;2024-01-10T13:20:57;-3.00;99.90
10660;DHT22;5378;53.206;13.316;2024-01-10T13:23:44;-2.90;99.90
10660;DHT22;5378;53.206;13.316;2024-01-10T13:26:32;-2.80;99.90
10660;DHT22;5378;53.206;13.316;2024-01-10T13:29:19;-2.80;99.90
10660;DHT22;5378;53.206;13.316;2024-01-10T13:32:06;-2.90;99.90
10660;DHT22;5378;53.206;13.316;2024-01-10T13:34:54;-2.90;99.90
10660;DHT22;5378;53.206;13.316;2024-01-10T13:37:42;-2.80;99.90
10660;DHT22;5378;53.206;13.316;2024-01-10T13:40:30;-2.70;99.90
10660;DHT22;5378;53.206;13.316;2024-01-10T13:43:17;-2.70;99.90
10660;DHT22;5378;53.206;13.316;2024-01-10T13:46:04;-2.80;99.90
10660;DHT22;5378;53.206;13.316;2024-01-10T13:48:52;-2.90;99.90
10660;DHT22;5378;53.206;13.316;2024-01-10T13:51:39;-2.80;99.90
10660;DHT22;5378;53.206;13.316;2024-01-10T13:54:28;-2.70;99.90
10660;DHT22;5378;53.206;13.316;2024-01-10T13:57:15;-2.60;99.90
10660;DHT22;5378;53.206;13.316;2024-01-10T14:00:02;-2.50;99.90
10660;DHT22;5378;53.206;13.316;2024-01-10T14:02:56;-2.40;99.90
10660;DHT22;5378;53.206;13.316;2024-01-10T14:05:45;-2.50;99.90
10660;DHT22;5378;53.206;13.316;2024-01-10T14:08:32;-2.70;99.90
10660;DHT22;5378;53.206;13.316;2024-01-10T14:11:21;-2.70;99.90
10660;DHT22;5378;53.206;13.316;2024-01-10T14:14:08;-2.70;99.90
10660;DHT22;5378;53.206;13.316;2024-01-10T14:16:55;-2.70;99.90
10660;DHT22;5378;53.206;13.316;2024-01-10T14:19:42;-2.60;99.90
10660;DHT22;5378;53.206;13.316;2024-01-10T14:22:29;-2.70;99.90
10660;DHT22;5378;53.206;13.316;2024-01-10T14:25:17;-2.90;99.90
10660;DHT22;5378;53.206;13.316;2024-01-10T14:28:06;-3.00;99.90
10660;DHT22;5378;53.206;13.316;2024-01-10T14:30:53;-3.00;99.90
10660;DHT22;5378;53.206;13.316;2024-01-10T14:33:47;-3.00;99.90
10660;DHT22;5378;53.206;13.316;2024-01-10T14:36:34;-3.10;99.90
10660;DHT22;5378;53.206;13.316;2024-01-10T14:39:23;-3.20;99.90
10660;DHT22;5378;53.206;13.316;2024-01-10T14:42:10;-3.30;99.90
10660;DHT22;5378;53.206;13.316;2024-01-10T14:44:59;-3.30;99.90
10660;DHT22;5378;53.206;13.316;2024-01-10T14:47:46;-3.30;99.90
10660;DHT22;5378;53.206;13.316;2024-01-10T14:50:33;-3.30;99.90
10660;DHT22;5378;53.206;13.316;2024-01-10T14:53:20;-3.40;99.90
10660;DHT22;5378;53.206;13.316;2024-01-10T14:56:07;-3.40;99.90
10660;DHT22;5378;53.206;13.316;2024-01-10T14:58:55;-3.50;99.90
10660;DHT22;5378;53.206;13.316;2024-01-10T15:01:45;-3.50;99.90
10660;DHT22;5378;53.206;13.316;2024-01-10T15:04:36;-3.60;99.90
10660;DHT22;5378;53.206;13.316;2024-01-10T15:07:23;-3.60;99.90
10660;DHT22;5378;53.206;13.316;2024-01-10T15:10:10;-3.60;99.90
10660;DHT22;5378;53.206;13.316;2024-01-10T15:12:57;-3.70;99.90
10660;DHT22;5378;53.206;13.316;2024-01-10T15:15:45;-3.70;99.90
10660;DHT22;5378;53.206;13.316;2024-01-10T15:18:33;-3.70;99.90
10660;DHT22;5378;53.206;13.316;2024-01-10T15:21:20;-3.70;99.90
10660;DHT22;5378;53.206;13.316;2024-01-10T15:24:08;-3.90;99.90
10660;DHT22;5378;53.206;13.316;2024-01-10T15:26:55;-4.00;99.90
10660;DHT22;5378;53.206;13.316;2024-01-10T15:29:46;-4.10;99.90
10660;DHT22;5378;53.206;13.316;2024-01-10T15:32:34;-4.20;99.90
10660;DHT22;5378;53.206;13.316;2024-01-10T15:35:22;-4.30;99.90
10660;DHT22;5378;53.206;13.316;2024-01-10T15:38:09;-4.50;99.90
10660;DHT22;5378;53.206;13.316;2024-01-10T15:40:57;-4.40;99.90
10660;DHT22;5378;53.206;13.316;2024-01-10T15:43:46;-4.50;99.90
10660;DHT22;5378;53.206;13.316;2024-01-10T15:46:33;-4.50;99.90
10660;DHT22;5378;53.206;13.316;2024-01-10T15:49:20;-4.50;99.90
10660;DHT22;5378;53.206;13.316;2024-01-10T15:52:08;-4.60;99.90
10660;DHT22;5378;53.206;13.316;2024-01-10T15:54:55;-4.60;99.90
10660;DHT22;5378;53.206;13.316;2024-01-10T15:57:42;-4.60;99.90
10660;DHT22;5378;53.206;13.316;2024-01-10T16:00:32;-4.80;99.90
10660;DHT22;5378;53.206;13.316;2024-01-10T16:03:19;-4.80;99.90
10660;DHT22;5378;53.206;13.316;2024-01-10T16:06:06;-4.70;99.90
10660;DHT22;5378;53.206;13.316;2024-01-10T16:08:56;-4.70;99.90
10660;DHT22;5378;53.206;13.316;2024-01-10T16:11:43;-4.70;99.90
10660;DHT22;5378;53.206;13.316;2024-01-10T16:14:30;-4.80;99.90
10660;DHT22;5378;53.206;13.316;2024-01-10T16:17:17;-4.70;99.90
10660;DHT22;5378;53.206;13.316;2024-01-10T16:20:06;-4.80;99.90
10660;DHT22;5378;53.206;13.316;2024-01-10T16:22:53;-4.80;99.90
10660;DHT22;5378;53.206;13.316;2024-01-10T16:25:42;-4.90;99.90
10660;DHT22;5378;53.206;13.316;2024-01-10T16:28:30;-4.90;99.90
10660;DHT22;5378;53.206;13.316;2024-01-10T16:31:17;-5.00;99.90
10660;DHT22;5378;53.206;13.316;2024-01-10T16:34:04;-5.10;99.90
10660;DHT22;5378;53.206;13.316;2024-01-10T16:36:51;-5.10;99.90
10660;DHT22;5378;53.206;13.316;2024-01-10T16:39:38;-5.30;99.90
10660;DHT22;5378;53.206;13.316;2024-01-10T16:42:28;-5.40;99.90
10660;DHT22;5378;53.206;13.316;2024-01-10T16:45:20;-5.40;99.90
10660;DHT22;5378;53.206;13.316;2024-01-10T16:48:07;-5.40;99.90
10660;DHT22;5378;53.206;13.316;2024-01-10T16:50:54;-5.40;99.90
10660;DHT22;5378;53.206;13.316;2024-01-10T16:53:41;-5.40;99.90
10660;DHT22;5378;53.206;13.316;2024-01-10T16:56:28;-5.40;99.90
10660;DHT22;5378;53.206;13.316;2024-01-10T16:59:17;-5.60;99.90
10660;DHT22;5378;53.206;13.316;2024-01-10T17:02:04;-5.70;99.90
10660;DHT22;5378;53.206;13.316;2024-01-10T17:04:51;-5.60;99.90
10660;DHT22;5378;53.206;13.316;2024-01-10T17:07:38;-5.80;99.90
10660;DHT22;5378;53.206;13.316;2024-01-10T17:10:25;-5.80;99.90
10660;DHT22;5378;53.206;13.316;2024-01-10T17:13:12;-6.00;99.90
10660;DHT22;5378;53.206;13.316;2024-01-10T17:16:01;-6.00;99.90
10660;DHT22;5378;53.206;13.316;2024-01-10T17:18:50;-5.80;99.90
10660;DHT22;5378;53.206;13.316;2024-01-10T17:21:37;-5.90;99.90
10660;DHT22;5378;53.206;13.316;2024-01-10T17:24:24;-6.00;99.90
10660;DHT22;5378;53.206;13.316;2024-01-10T17:27:11;-6.00;99.90
10660;DHT22;5378;53.206;13.316;2024-01-10T17:29:58;-6.00;99.90
10660;DHT22;5378;53.206;13.316;2024-01-10T17:32:46;-6.10;99.90
10660;DHT22;5378;53.206;13.316;2024-01-10T17:35:34;-5.90;99.90
10660;DHT22;5378;53.206;13.316;2024-01-10T17:38:21;-5.90;99.90
10660;DHT22;5378;53.206;13.316;2024-01-10T17:41:08;-5.80;99.90